x

Halibut Bank (46146) Wave Buoy

6:00 - Wed 1st Jul 2015 All times are PDT. -7 hours from GMT.

  • Sig Wave height 3.6ft
  • Peak Period 5s
  • Wind
    22mph, 25mph gusts
  • Sea Temp 63°f
  • Air Temp 63°f
  • Sea Pressure 1018.4mb
  • Halibut Bank
  • Halibut Bank

More Historic Weather Station data

Upgrade to MSW Pro to gain access to the past 30 days of data for over 8000 Wavebouys and Weather Stations around the globe.

Join Pro

Comparision Forecast

View Surf forecast
   
mer. 07/01 6:00 3.5ft 5s 22 25 mph 1018.4mb 63f 63f
5:00 3.5ft 4s 22 27 mph 1017.8mb 63f 63f
4:00 3.5ft 4s 22 27 mph 1017.6mb 64f 64f
3:00 3.5ft 4s 20 27 mph 1017.4mb 64f 65f
2:00 3ft 4s 22 27 mph 1017.1mb 65f 65f
1:00 2.5ft 4s 18 22 mph 1017.3mb 66f 67f
12:00 2.5ft 4s 20 25 mph 1017.2mb 66f 67f
mar. 06/30 10:00 2ft 3s 20 22 mph 1017.2mb 68f 69f
9:00 1.6ft 3s 18 20 mph 1016.4mb 69f 70f
8:00 1ft 2s 18 22 mph 1016.2mb 69f 73f
7:00 1ft 3s 13 16 mph 1016.2mb 71f 73f
6:00 0.7ft 2s 11 13 mph 1016.3mb 72f 73f
5:00 0.7ft 4s 7 9 mph 1016.8mb 72f 72f
3:00 0.7ft 3s 7
mph
1018.1mb 73f 71f
2:00 0.7ft 4s 2 4 mph 1018.7mb 72f 70f
1:00 0.7ft 3s 2
mph
1019.1mb 70f 69f
12:00 0.7ft 3s 2 4 mph 1019.5mb 69f 69f
11:00 1ft 3s 4 7 mph 1019.6mb 69f 68f
10:00 0.7ft 3s 4 7 mph 1019.5mb 68f 67f
9:00 0.7ft 2s 4 7 mph 1019.3mb 68f 67f
8:00 1ft 3s 11 13 mph 1018.8mb 68f 66f
7:00 0.7ft 2s 11 13 mph 1018.4mb 68f 66f
6:00 1ft 3s 2
mph
1017.8mb 69f 69f
5:00 1ft 3s 9 11 mph 1017.4mb 69f 69f
4:00 1ft 3s 11 13 mph 1016.8mb 69f 69f
3:00 1ft 3s 7
mph
1016.6mb 70f 70f
2:00 0.7ft 3s 9 13 mph 1016.4mb 69f 70f
1:00 0.3ft 5s 7 9 mph 1016.2mb 70f 71f
12:00 0.3ft 3s 11
mph
1015.7mb 71f 71f
lun. 06/29 11:00 0.3ft 6s  -  2 mph 1015.5mb 71f 72f
10:00 0.3ft 3s 2
mph
1015.1mb 72f 72f
9:00 0.3ft 6s 4
mph
1014.5mb 71f 73f
8:00 0.7ft 6s 2
mph
1014.1mb 71f 73f
7:00 0.3ft 6s  -  2 mph 1014mb 72f 74f
6:00 0.3ft 5s 2
mph
1013.8mb 72f 74f
5:00 0.3ft 6s 4
mph
1014.1mb 72f 72f
4:00 0.3ft 7s 2 4 mph 1014.3mb 71f 72f
3:00 0.3ft 6s 2 4 mph 1014.8mb 70f 70f
2:00 0.3ft 6s 2 4 mph 1014.9mb 67f 70f
1:00 0.3ft 5s 4
mph
1015mb 68f 70f
12:00 0.3ft 6s 4
mph
1014.9mb 66f 69f
11:00 0.3ft 4s 7
mph
1014.8mb 65f 66f
9:00 0.3ft 6s 4
mph
1014.6mb 63f 66f
8:00 0.3ft 5s  -  mph 1014.5mb 62f 71f
7:00 0.3ft 4s 2 4 mph 1014mb 61f 68f
6:00 0.3ft 3s 7
mph
1013.7mb 61f 67f
5:00 0.3ft 3s 7 9 mph 1013.1mb 61f 66f
4:00 0.3ft 4s  -  2 mph 1012.8mb 61f 68f
3:00 0.3ft 2s 2
mph
1012.6mb 61f 70f
2:00 0.3ft 2s 4 7 mph 1012.7mb 61f 70f
1:00 0.7ft 2s 7 9 mph 1012.8mb 61f 67f
12:00 0.7ft 3s 9 13 mph 1012.6mb 61f 70f
dim. 06/28 11:00 0.3ft 6s 4
mph
1013mb 61f 68f
10:00 0.3ft 5s 4 7 mph 1013.5mb 62f 68f
9:00 0.3ft 6s 4 9 mph 1014.8mb 62f 71f
8:00 0.3ft 3s 4 7 mph 1014.4mb 62f 70f
7:00 0.7ft 6s 4
mph
1013.9mb 62f 68f
6:00 0.7ft 4s 7 9 mph 1013.4mb 62f 70f
5:00 0.7ft 3s 9 11 mph 1013.4mb 63f 67f
4:00 0.7ft 3s 4 7 mph 1013.6mb 62f 67f
3:00 0.7ft 3s 9 11 mph 1014.4mb 62f 66f
2:00 1ft 3s 2 4 mph 1014.5mb 61f 68f
1:00 1.3ft 3s 9
mph
1014.5mb 61f 67f
12:00 1.6ft 4s 16 18 mph 1014.3mb 61f 66f
11:00 1.6ft 4s 13 16 mph 1014.3mb 61f 65f
10:00 1.6ft 3s 16 18 mph 1014.5mb 60f 65f
9:00 1.6ft 4s 13 16 mph 1014.7mb 60f 64f
8:00 2ft 3s 13 16 mph 1014.6mb 60f 64f
7:00 2ft 4s 16 18 mph 1014.3mb 60f 65f
6:00 2ft 4s 16 18 mph 1014.1mb 61f 65f
5:00 2ft 4s 18 20 mph 1013.9mb 62f 66f
4:00 2ft 4s 18 20 mph 1013.2mb 62f 66f
3:00 2ft 4s 18 22 mph 1013.2mb 63f 67f
2:00 1.6ft 3s 16 18 mph 1013.2mb 63f 67f
1:00 1.6ft 3s 16 18 mph 1012.7mb 63f 68f
12:00 1.6ft 3s 18 20 mph 1012.2mb 64f 70f
sam. 06/27 11:00 2ft 3s 20 22 mph 1012mb 64f 70f
10:00 2ft 3s 18 22 mph 1012.1mb 63f 70f
9:00 1.6ft 3s 20 22 mph 1011.8mb 63f 72f
8:00 1.6ft 3s 20 22 mph 1011.9mb 64f 72f
7:00 2ft 3s 20 22 mph 1012.1mb 65f 73f
6:00 2ft 3s 20 22 mph 1012.3mb 65f 73f
5:00 2ft 3s 22 25 mph 1012.6mb 65f 72f
4:00 2ft 3s 18 20 mph 1013.4mb 65f 70f
3:00 2ft 4s 18 20 mph 1014mb 65f 69f